Aviation Digital Data Service (ADDS)

Output produced by METARs form (0253 UTC 19 April 2014)
found at http://aviationweather.gov/adds/metars/
 
KLAN 182329Z 1900/1924 29011KT P6SM FEW060 
     FM190300 04005KT P6SM SKC 
     FM191400 10010KT P6SM SKC